sensor_id;sensor_type;location;lat;lon;timestamp;P1;durP1;ratioP1;P2;durP2;ratioP2
50789;SDS011;37287;47.554;7.844;2023-08-24T00:00:27;2.40;;;2.20;;
50789;SDS011;37287;47.554;7.844;2023-08-24T00:02:54;2.30;;;2.10;;
50789;SDS011;37287;47.554;7.844;2023-08-24T00:05:24;2.95;;;2.40;;
50789;SDS011;37287;47.554;7.844;2023-08-24T00:07:51;2.30;;;2.10;;
50789;SDS011;37287;47.554;7.844;2023-08-24T00:10:21;3.25;;;2.22;;
50789;SDS011;37287;47.554;7.844;2023-08-24T00:12:47;4.30;;;2.42;;
50789;SDS011;37287;47.554;7.844;2023-08-24T00:15:14;2.50;;;2.30;;
50789;SDS011;37287;47.554;7.844;2023-08-24T00:17:43;2.78;;;2.58;;
50789;SDS011;37287;47.554;7.844;2023-08-24T00:20:10;3.90;;;2.40;;
50789;SDS011;37287;47.554;7.844;2023-08-24T00:22:38;3.55;;;2.58;;
50789;SDS011;37287;47.554;7.844;2023-08-24T00:25:06;3.40;;;2.33;;
50789;SDS011;37287;47.554;7.844;2023-08-24T00:27:35;2.55;;;2.35;;
50789;SDS011;37287;47.554;7.844;2023-08-24T00:30:02;2.95;;;2.60;;
50789;SDS011;37287;47.554;7.844;2023-08-24T00:32:36;2.45;;;2.30;;
50789;SDS011;37287;47.554;7.844;2023-08-24T00:35:03;3.00;;;2.33;;
50789;SDS011;37287;47.554;7.844;2023-08-24T00:37:32;3.42;;;2.08;;
50789;SDS011;37287;47.554;7.844;2023-08-24T00:40:00;3.85;;;2.20;;
50789;SDS011;37287;47.554;7.844;2023-08-24T00:42:31;2.70;;;2.50;;
50789;SDS011;37287;47.554;7.844;2023-08-24T00:44:57;2.75;;;2.42;;
50789;SDS011;37287;47.554;7.844;2023-08-24T00:47:32;2.67;;;2.30;;
50789;SDS011;37287;47.554;7.844;2023-08-24T00:50:00;2.78;;;2.58;;
50789;SDS011;37287;47.554;7.844;2023-08-24T00:52:27;2.90;;;2.38;;
50789;SDS011;37287;47.554;7.844;2023-08-24T00:55:03;2.22;;;2.10;;
50789;SDS011;37287;47.554;7.844;2023-08-24T00:57:33;4.60;;;2.45;;
50789;SDS011;37287;47.554;7.844;2023-08-24T01:00:02;10.35;;;2.30;;
50789;SDS011;37287;47.554;7.844;2023-08-24T01:02:37;3.92;;;2.20;;
50789;SDS011;37287;47.554;7.844;2023-08-24T01:05:05;2.58;;;1.92;;
50789;SDS011;37287;47.554;7.844;2023-08-24T01:07:34;2.50;;;2.30;;
50789;SDS011;37287;47.554;7.844;2023-08-24T01:10:05;3.47;;;2.45;;
50789;SDS011;37287;47.554;7.844;2023-08-24T01:15:17;2.78;;;2.20;;
50789;SDS011;37287;47.554;7.844;2023-08-24T01:20:17;5.68;;;2.25;;
50789;SDS011;37287;47.554;7.844;2023-08-24T01:25:20;2.47;;;2.22;;
50789;SDS011;37287;47.554;7.844;2023-08-24T01:27:58;2.65;;;2.30;;
50789;SDS011;37287;47.554;7.844;2023-08-24T01:30:26;2.33;;;2.13;;
50789;SDS011;37287;47.554;7.844;2023-08-24T01:32:57;2.38;;;2.17;;
50789;SDS011;37287;47.554;7.844;2023-08-24T01:35:25;2.60;;;2.40;;
50789;SDS011;37287;47.554;7.844;2023-08-24T01:37:52;3.80;;;2.15;;
50789;SDS011;37287;47.554;7.844;2023-08-24T01:43:36;3.17;;;2.60;;
50789;SDS011;37287;47.554;7.844;2023-08-24T01:46:09;2.90;;;2.70;;
50789;SDS011;37287;47.554;7.844;2023-08-24T01:48:40;3.58;;;2.53;;
50789;SDS011;37287;47.554;7.844;2023-08-24T01:51:08;2.60;;;2.40;;
50789;SDS011;37287;47.554;7.844;2023-08-24T01:53:39;3.17;;;2.50;;
50789;SDS011;37287;47.554;7.844;2023-08-24T01:56:11;2.70;;;2.50;;
50789;SDS011;37287;47.554;7.844;2023-08-24T01:58:39;4.55;;;2.40;;
50789;SDS011;37287;47.554;7.844;2023-08-24T02:01:06;3.17;;;2.50;;
50789;SDS011;37287;47.554;7.844;2023-08-24T02:03:39;3.03;;;2.42;;
50789;SDS011;37287;47.554;7.844;2023-08-24T02:06:06;4.50;;;2.47;;
50789;SDS011;37287;47.554;7.844;2023-08-24T02:08:33;5.80;;;2.50;;
50789;SDS011;37287;47.554;7.844;2023-08-24T02:11:02;4.25;;;2.40;;
50789;SDS011;37287;47.554;7.844;2023-08-24T02:13:29;2.35;;;2.17;;
50789;SDS011;37287;47.554;7.844;2023-08-24T02:16:01;3.50;;;2.47;;
50789;SDS011;37287;47.554;7.844;2023-08-24T02:18:32;2.47;;;2.28;;
50789;SDS011;37287;47.554;7.844;2023-08-24T02:20:59;2.65;;;2.22;;
50789;SDS011;37287;47.554;7.844;2023-08-24T02:23:25;2.35;;;2.15;;
50789;SDS011;37287;47.554;7.844;2023-08-24T02:26:05;2.60;;;2.17;;
50789;SDS011;37287;47.554;7.844;2023-08-24T02:28:32;2.83;;;2.28;;
50789;SDS011;37287;47.554;7.844;2023-08-24T02:31:00;2.40;;;2.20;;
50789;SDS011;37287;47.554;7.844;2023-08-24T02:33:32;2.30;;;2.10;;
50789;SDS011;37287;47.554;7.844;2023-08-24T02:35:59;2.33;;;2.17;;
50789;SDS011;37287;47.554;7.844;2023-08-24T02:38:28;2.92;;;2.42;;
50789;SDS011;37287;47.554;7.844;2023-08-24T02:41:04;2.58;;;2.22;;
50789;SDS011;37287;47.554;7.844;2023-08-24T02:43:32;2.83;;;2.30;;
50789;SDS011;37287;47.554;7.844;2023-08-24T02:46:03;3.33;;;2.63;;
50789;SDS011;37287;47.554;7.844;2023-08-24T02:48:31;4.00;;;2.38;;
50789;SDS011;37287;47.554;7.844;2023-08-24T02:51:00;2.72;;;2.35;;
50789;SDS011;37287;47.554;7.844;2023-08-24T02:53:31;10.52;;;2.50;;
50789;SDS011;37287;47.554;7.844;2023-08-24T02:55:58;4.70;;;2.40;;
50789;SDS011;37287;47.554;7.844;2023-08-24T02:58:25;2.60;;;2.30;;
50789;SDS011;37287;47.554;7.844;2023-08-24T03:00:55;2.65;;;2.45;;
50789;SDS011;37287;47.554;7.844;2023-08-24T03:03:23;4.60;;;2.45;;
50789;SDS011;37287;47.554;7.844;2023-08-24T03:05:57;2.58;;;2.38;;
50789;SDS011;37287;47.554;7.844;2023-08-24T03:08:28;4.22;;;2.30;;
50789;SDS011;37287;47.554;7.844;2023-08-24T03:10:56;2.42;;;2.22;;
50789;SDS011;37287;47.554;7.844;2023-08-24T03:13:23;2.10;;;2.00;;
50789;SDS011;37287;47.554;7.844;2023-08-24T03:15:50;2.90;;;2.10;;
50789;SDS011;37287;47.554;7.844;2023-08-24T03:18:18;3.75;;;2.20;;
50789;SDS011;37287;47.554;7.844;2023-08-24T03:20:48;2.40;;;2.20;;
50789;SDS011;37287;47.554;7.844;2023-08-24T03:23:18;2.60;;;2.40;;
50789;SDS011;37287;47.554;7.844;2023-08-24T03:25:44;2.53;;;2.33;;
50789;SDS011;37287;47.554;7.844;2023-08-24T03:28:11;2.47;;;2.28;;
50789;SDS011;37287;47.554;7.844;2023-08-24T03:30:45;2.50;;;2.28;;
50789;SDS011;37287;47.554;7.844;2023-08-24T03:33:13;2.60;;;2.40;;
50789;SDS011;37287;47.554;7.844;2023-08-24T03:35:40;2.72;;;2.30;;
50789;SDS011;37287;47.554;7.844;2023-08-24T03:38:07;2.67;;;2.47;;
50789;SDS011;37287;47.554;7.844;2023-08-24T03:40:34;5.95;;;2.30;;
50789;SDS011;37287;47.554;7.844;2023-08-24T03:43:01;2.65;;;2.38;;
50789;SDS011;37287;47.554;7.844;2023-08-24T03:45:30;3.92;;;2.38;;
50789;SDS011;37287;47.554;7.844;2023-08-24T03:47:57;2.78;;;2.30;;
50789;SDS011;37287;47.554;7.844;2023-08-24T03:50:23;2.35;;;2.15;;
50789;SDS011;37287;47.554;7.844;2023-08-24T03:52:50;2.40;;;2.20;;
50789;SDS011;37287;47.554;7.844;2023-08-24T03:55:17;4.35;;;2.15;;
50789;SDS011;37287;47.554;7.844;2023-08-24T03:57:44;3.15;;;2.60;;
50789;SDS011;37287;47.554;7.844;2023-08-24T04:00:16;3.03;;;2.20;;
50789;SDS011;37287;47.554;7.844;2023-08-24T04:02:46;2.25;;;2.05;;
50789;SDS011;37287;47.554;7.844;2023-08-24T04:05:12;2.40;;;2.20;;
50789;SDS011;37287;47.554;7.844;2023-08-24T04:07:39;2.58;;;1.92;;
50789;SDS011;37287;47.554;7.844;2023-08-24T04:10:07;2.78;;;2.35;;
50789;SDS011;37287;47.554;7.844;2023-08-24T04:12:35;2.63;;;2.42;;
50789;SDS011;37287;47.554;7.844;2023-08-24T04:15:04;2.13;;;2.03;;
50789;SDS011;37287;47.554;7.844;2023-08-24T04:17:31;2.42;;;2.25;;
50789;SDS011;37287;47.554;7.844;2023-08-24T04:19:58;3.90;;;2.33;;
50789;SDS011;37287;47.554;7.844;2023-08-24T04:22:26;7.65;;;2.50;;
50789;SDS011;37287;47.554;7.844;2023-08-24T04:24:53;2.45;;;2.05;;
50789;SDS011;37287;47.554;7.844;2023-08-24T04:27:20;2.40;;;2.20;;
50789;SDS011;37287;47.554;7.844;2023-08-24T04:29:48;3.13;;;2.00;;
50789;SDS011;37287;47.554;7.844;2023-08-24T04:32:15;2.97;;;2.50;;
50789;SDS011;37287;47.554;7.844;2023-08-24T04:34:41;3.47;;;2.20;;
50789;SDS011;37287;47.554;7.844;2023-08-24T04:37:21;4.75;;;2.40;;
50789;SDS011;37287;47.554;7.844;2023-08-24T04:39:47;3.25;;;2.65;;
50789;SDS011;37287;47.554;7.844;2023-08-24T04:42:14;2.67;;;2.40;;
50789;SDS011;37287;47.554;7.844;2023-08-24T04:44:40;6.03;;;2.55;;
50789;SDS011;37287;47.554;7.844;2023-08-24T04:47:07;3.15;;;2.50;;
50789;SDS011;37287;47.554;7.844;2023-08-24T04:49:36;2.70;;;2.50;;
50789;SDS011;37287;47.554;7.844;2023-08-24T04:52:05;2.95;;;2.53;;
50789;SDS011;37287;47.554;7.844;2023-08-24T04:54:32;2.92;;;2.60;;
50789;SDS011;37287;47.554;7.844;2023-08-24T04:56:59;2.58;;;2.30;;
50789;SDS011;37287;47.554;7.844;2023-08-24T04:59:28;2.70;;;2.20;;
50789;SDS011;37287;47.554;7.844;2023-08-24T05:01:54;4.72;;;2.55;;
50789;SDS011;37287;47.554;7.844;2023-08-24T05:04:21;4.13;;;2.47;;
50789;SDS011;37287;47.554;7.844;2023-08-24T05:06:50;2.67;;;2.47;;
50789;SDS011;37287;47.554;7.844;2023-08-24T05:09:16;3.25;;;2.50;;
50789;SDS011;37287;47.554;7.844;2023-08-24T05:11:43;2.70;;;2.45;;
50789;SDS011;37287;47.554;7.844;2023-08-24T05:14:15;3.90;;;2.53;;
50789;SDS011;37287;47.554;7.844;2023-08-24T05:16:42;2.58;;;2.38;;
50789;SDS011;37287;47.554;7.844;2023-08-24T05:19:09;2.72;;;2.33;;
50789;SDS011;37287;47.554;7.844;2023-08-24T05:21:36;3.90;;;2.50;;
50789;SDS011;37287;47.554;7.844;2023-08-24T05:24:02;2.63;;;2.40;;
50789;SDS011;37287;47.554;7.844;2023-08-24T05:26:31;4.22;;;2.10;;
50789;SDS011;37287;47.554;7.844;2023-08-24T05:29:04;5.60;;;2.50;;
50789;SDS011;37287;47.554;7.844;2023-08-24T05:31:30;2.92;;;2.58;;
50789;SDS011;37287;47.554;7.844;2023-08-24T05:33:59;5.30;;;2.63;;
50789;SDS011;37287;47.554;7.844;2023-08-24T05:36:26;2.50;;;2.30;;
50789;SDS011;37287;47.554;7.844;2023-08-24T05:38:54;2.92;;;2.40;;
50789;SDS011;37287;47.554;7.844;2023-08-24T05:41:31;5.00;;;2.30;;
50789;SDS011;37287;47.554;7.844;2023-08-24T05:44:04;3.17;;;2.38;;
50789;SDS011;37287;47.554;7.844;2023-08-24T05:46:31;4.50;;;2.53;;
50789;SDS011;37287;47.554;7.844;2023-08-24T05:48:58;2.67;;;2.47;;
50789;SDS011;37287;47.554;7.844;2023-08-24T05:51:29;3.22;;;2.50;;
50789;SDS011;37287;47.554;7.844;2023-08-24T05:53:56;3.58;;;2.38;;
50789;SDS011;37287;47.554;7.844;2023-08-24T05:56:24;3.70;;;2.70;;
50789;SDS011;37287;47.554;7.844;2023-08-24T05:58:51;5.35;;;2.45;;
50789;SDS011;37287;47.554;7.844;2023-08-24T06:01:24;5.28;;;2.80;;
50789;SDS011;37287;47.554;7.844;2023-08-24T06:03:51;4.30;;;2.78;;
50789;SDS011;37287;47.554;7.844;2023-08-24T06:06:18;3.25;;;2.42;;
50789;SDS011;37287;47.554;7.844;2023-08-24T06:08:44;2.80;;;2.60;;
50789;SDS011;37287;47.554;7.844;2023-08-24T06:11:11;4.25;;;2.45;;
50789;SDS011;37287;47.554;7.844;2023-08-24T06:16:17;2.47;;;2.28;;
50789;SDS011;37287;47.554;7.844;2023-08-24T06:18:44;3.00;;;2.38;;
50789;SDS011;37287;47.554;7.844;2023-08-24T06:21:10;3.60;;;2.70;;
50789;SDS011;37287;47.554;7.844;2023-08-24T06:23:42;4.10;;;2.67;;
50789;SDS011;37287;47.554;7.844;2023-08-24T06:26:09;4.13;;;2.30;;
50789;SDS011;37287;47.554;7.844;2023-08-24T06:28:35;2.40;;;2.20;;
50789;SDS011;37287;47.554;7.844;2023-08-24T06:31:02;4.45;;;2.50;;
50789;SDS011;37287;47.554;7.844;2023-08-24T06:33:29;4.93;;;2.40;;
50789;SDS011;37287;47.554;7.844;2023-08-24T06:36:01;3.10;;;2.38;;
50789;SDS011;37287;47.554;7.844;2023-08-24T06:38:30;2.72;;;2.50;;
50789;SDS011;37287;47.554;7.844;2023-08-24T06:40:58;3.50;;;2.60;;
50789;SDS011;37287;47.554;7.844;2023-08-24T06:43:25;2.30;;;2.10;;
50789;SDS011;37287;47.554;7.844;2023-08-24T06:45:54;2.92;;;2.15;;
50789;SDS011;37287;47.554;7.844;2023-08-24T06:48:21;2.40;;;2.20;;
50789;SDS011;37287;47.554;7.844;2023-08-24T06:50:48;2.75;;;2.28;;
50789;SDS011;37287;47.554;7.844;2023-08-24T06:53:15;4.10;;;1.80;;
50789;SDS011;37287;47.554;7.844;2023-08-24T06:55:42;3.33;;;2.00;;
50789;SDS011;37287;47.554;7.844;2023-08-24T06:58:08;2.45;;;2.15;;
50789;SDS011;37287;47.554;7.844;2023-08-24T07:00:41;2.03;;;1.80;;
50789;SDS011;37287;47.554;7.844;2023-08-24T07:03:07;2.67;;;2.05;;
50789;SDS011;37287;47.554;7.844;2023-08-24T07:05:36;3.05;;;2.08;;
50789;SDS011;37287;47.554;7.844;2023-08-24T07:08:04;2.22;;;2.03;;
50789;SDS011;37287;47.554;7.844;2023-08-24T07:10:35;3.80;;;2.20;;
50789;SDS011;37287;47.554;7.844;2023-08-24T07:13:01;5.38;;;2.10;;
50789;SDS011;37287;47.554;7.844;2023-08-24T07:15:30;3.35;;;2.42;;
50789;SDS011;37287;47.554;7.844;2023-08-24T07:18:01;3.97;;;2.10;;
50789;SDS011;37287;47.554;7.844;2023-08-24T07:20:29;4.57;;;2.30;;
50789;SDS011;37287;47.554;7.844;2023-08-24T07:22:57;3.92;;;2.40;;
50789;SDS011;37287;47.554;7.844;2023-08-24T07:25:24;2.53;;;2.20;;
50789;SDS011;37287;47.554;7.844;2023-08-24T07:27:51;4.70;;;2.10;;
50789;SDS011;37287;47.554;7.844;2023-08-24T07:30:18;2.95;;;2.13;;
50789;SDS011;37287;47.554;7.844;2023-08-24T07:32:58;4.75;;;1.88;;
50789;SDS011;37287;47.554;7.844;2023-08-24T07:35:25;3.50;;;2.10;;
50789;SDS011;37287;47.554;7.844;2023-08-24T07:37:52;1.80;;;1.70;;
50789;SDS011;37287;47.554;7.844;2023-08-24T07:40:22;2.70;;;2.20;;
50789;SDS011;37287;47.554;7.844;2023-08-24T07:42:50;2.60;;;1.85;;
50789;SDS011;37287;47.554;7.844;2023-08-24T07:45:19;3.20;;;2.28;;
50789;SDS011;37287;47.554;7.844;2023-08-24T07:47:46;3.42;;;2.13;;
50789;SDS011;37287;47.554;7.844;2023-08-24T07:50:14;4.57;;;2.28;;
50789;SDS011;37287;47.554;7.844;2023-08-24T07:52:42;2.45;;;1.95;;
50789;SDS011;37287;47.554;7.844;2023-08-24T07:55:09;2.05;;;1.85;;
50789;SDS011;37287;47.554;7.844;2023-08-24T07:57:36;4.63;;;2.10;;
50789;SDS011;37287;47.554;7.844;2023-08-24T08:00:04;3.47;;;2.20;;
50789;SDS011;37287;47.554;7.844;2023-08-24T08:02:35;3.90;;;1.90;;
50789;SDS011;37287;47.554;7.844;2023-08-24T08:05:12;4.20;;;2.08;;
50789;SDS011;37287;47.554;7.844;2023-08-24T08:07:39;4.25;;;1.98;;
50789;SDS011;37287;47.554;7.844;2023-08-24T08:10:09;2.63;;;2.30;;
50789;SDS011;37287;47.554;7.844;2023-08-24T08:12:38;2.58;;;2.20;;
50789;SDS011;37287;47.554;7.844;2023-08-24T08:15:10;3.55;;;2.13;;
50789;SDS011;37287;47.554;7.844;2023-08-24T08:17:37;7.25;;;2.60;;
50789;SDS011;37287;47.554;7.844;2023-08-24T08:20:05;5.07;;;2.20;;
50789;SDS011;37287;47.554;7.844;2023-08-24T08:22:32;5.15;;;2.58;;
50789;SDS011;37287;47.554;7.844;2023-08-24T08:25:05;14.98;;;2.88;;
50789;SDS011;37287;47.554;7.844;2023-08-24T08:27:39;2.78;;;2.55;;
50789;SDS011;37287;47.554;7.844;2023-08-24T08:30:06;4.90;;;2.40;;
50789;SDS011;37287;47.554;7.844;2023-08-24T08:32:33;2.67;;;2.08;;
50789;SDS011;37287;47.554;7.844;2023-08-24T08:35:04;4.35;;;2.08;;
50789;SDS011;37287;47.554;7.844;2023-08-24T08:37:32;2.50;;;2.30;;
50789;SDS011;37287;47.554;7.844;2023-08-24T08:39:58;3.17;;;2.00;;
50789;SDS011;37287;47.554;7.844;2023-08-24T08:42:25;10.25;;;2.83;;
50789;SDS011;37287;47.554;7.844;2023-08-24T08:44:52;5.32;;;2.72;;
50789;SDS011;37287;47.554;7.844;2023-08-24T08:47:20;5.95;;;2.10;;
50789;SDS011;37287;47.554;7.844;2023-08-24T08:49:50;3.67;;;1.95;;
50789;SDS011;37287;47.554;7.844;2023-08-24T08:52:18;3.00;;;2.63;;
50789;SDS011;37287;47.554;7.844;2023-08-24T08:54:45;6.47;;;2.22;;
50789;SDS011;37287;47.554;7.844;2023-08-24T08:57:14;2.30;;;2.10;;
50789;SDS011;37287;47.554;7.844;2023-08-24T08:59:42;3.47;;;2.22;;
50789;SDS011;37287;47.554;7.844;2023-08-24T09:02:16;3.45;;;2.03;;
50789;SDS011;37287;47.554;7.844;2023-08-24T09:04:47;2.47;;;1.83;;
50789;SDS011;37287;47.554;7.844;2023-08-24T09:07:14;2.70;;;2.13;;
50789;SDS011;37287;47.554;7.844;2023-08-24T09:09:41;3.10;;;2.03;;
50789;SDS011;37287;47.554;7.844;2023-08-24T09:12:10;3.33;;;2.30;;
50789;SDS011;37287;47.554;7.844;2023-08-24T09:14:36;2.20;;;2.00;;
50789;SDS011;37287;47.554;7.844;2023-08-24T09:17:04;2.10;;;1.90;;
50789;SDS011;37287;47.554;7.844;2023-08-24T09:19:32;3.65;;;1.98;;
50789;SDS011;37287;47.554;7.844;2023-08-24T09:22:02;2.17;;;1.90;;
50789;SDS011;37287;47.554;7.844;2023-08-24T09:24:35;4.15;;;2.03;;
50789;SDS011;37287;47.554;7.844;2023-08-24T09:27:14;2.33;;;1.80;;
50789;SDS011;37287;47.554;7.844;2023-08-24T09:29:49;2.72;;;1.83;;
50789;SDS011;37287;47.554;7.844;2023-08-24T09:32:22;6.15;;;1.85;;
50789;SDS011;37287;47.554;7.844;2023-08-24T09:34:53;2.90;;;1.70;;
50789;SDS011;37287;47.554;7.844;2023-08-24T09:37:20;2.22;;;1.90;;
50789;SDS011;37287;47.554;7.844;2023-08-24T09:39:47;4.43;;;1.73;;
50789;SDS011;37287;47.554;7.844;2023-08-24T09:42:14;4.93;;;1.80;;
50789;SDS011;37287;47.554;7.844;2023-08-24T09:44:54;3.85;;;2.03;;
50789;SDS011;37287;47.554;7.844;2023-08-24T09:47:20;1.95;;;1.70;;
50789;SDS011;37287;47.554;7.844;2023-08-24T09:49:50;4.47;;;1.60;;
50789;SDS011;37287;47.554;7.844;2023-08-24T09:52:18;2.75;;;1.92;;
50789;SDS011;37287;47.554;7.844;2023-08-24T09:54:46;1.77;;;1.50;;
50789;SDS011;37287;47.554;7.844;2023-08-24T09:57:13;3.42;;;1.88;;
50789;SDS011;37287;47.554;7.844;2023-08-24T09:59:40;3.20;;;1.73;;
50789;SDS011;37287;47.554;7.844;2023-08-24T10:02:14;3.90;;;1.67;;
50789;SDS011;37287;47.554;7.844;2023-08-24T10:04:44;4.00;;;1.90;;
50789;SDS011;37287;47.554;7.844;2023-08-24T10:07:12;1.92;;;1.50;;
50789;SDS011;37287;47.554;7.844;2023-08-24T10:09:59;4.90;;;1.90;;
50789;SDS011;37287;47.554;7.844;2023-08-24T10:12:30;2.53;;;1.90;;
50789;SDS011;37287;47.554;7.844;2023-08-24T10:15:02;4.60;;;1.70;;
50789;SDS011;37287;47.554;7.844;2023-08-24T10:17:33;1.83;;;1.73;;
50789;SDS011;37287;47.554;7.844;2023-08-24T10:20:02;3.10;;;1.80;;
50789;SDS011;37287;47.554;7.844;2023-08-24T10:22:34;2.30;;;1.73;;
50789;SDS011;37287;47.554;7.844;2023-08-24T10:25:02;2.00;;;1.85;;
50789;SDS011;37287;47.554;7.844;2023-08-24T10:27:29;2.05;;;1.85;;
50789;SDS011;37287;47.554;7.844;2023-08-24T10:29:56;2.35;;;1.80;;
50789;SDS011;37287;47.554;7.844;2023-08-24T10:32:25;2.08;;;1.50;;
50789;SDS011;37287;47.554;7.844;2023-08-24T10:34:53;1.85;;;1.50;;
50789;SDS011;37287;47.554;7.844;2023-08-24T10:37:26;2.85;;;1.30;;
50789;SDS011;37287;47.554;7.844;2023-08-24T10:39:53;2.10;;;1.50;;
50789;SDS011;37287;47.554;7.844;2023-08-24T10:42:20;2.33;;;1.75;;
50789;SDS011;37287;47.554;7.844;2023-08-24T10:44:49;4.05;;;1.73;;
50789;SDS011;37287;47.554;7.844;2023-08-24T10:47:20;2.38;;;1.60;;
50789;SDS011;37287;47.554;7.844;2023-08-24T10:54:50;3.53;;;1.67;;
50789;SDS011;37287;47.554;7.844;2023-08-24T10:59:58;4.15;;;1.65;;
50789;SDS011;37287;47.554;7.844;2023-08-24T11:02:25;3.90;;;1.52;;
50789;SDS011;37287;47.554;7.844;2023-08-24T11:05:05;4.30;;;1.50;;
50789;SDS011;37287;47.554;7.844;2023-08-24T11:07:32;3.33;;;1.77;;
50789;SDS011;37287;47.554;7.844;2023-08-24T11:09:59;1.30;;;1.20;;
50789;SDS011;37287;47.554;7.844;2023-08-24T11:15:29;1.73;;;1.38;;
50789;SDS011;37287;47.554;7.844;2023-08-24T11:20:45;3.53;;;1.52;;
50789;SDS011;37287;47.554;7.844;2023-08-24T11:23:30;1.70;;;1.40;;
50789;SDS011;37287;47.554;7.844;2023-08-24T11:25:57;2.55;;;1.55;;
50789;SDS011;37287;47.554;7.844;2023-08-24T11:28:29;4.47;;;1.80;;
50789;SDS011;37287;47.554;7.844;2023-08-24T11:30:57;2.38;;;1.58;;
50789;SDS011;37287;47.554;7.844;2023-08-24T11:33:29;2.35;;;1.48;;
50789;SDS011;37287;47.554;7.844;2023-08-24T11:35:57;2.33;;;1.40;;
50789;SDS011;37287;47.554;7.844;2023-08-24T11:38:34;2.45;;;1.23;;
50789;SDS011;37287;47.554;7.844;2023-08-24T11:41:09;2.58;;;1.40;;
50789;SDS011;37287;47.554;7.844;2023-08-24T11:43:43;2.97;;;1.40;;
50789;SDS011;37287;47.554;7.844;2023-08-24T11:46:11;8.57;;;1.75;;
50789;SDS011;37287;47.554;7.844;2023-08-24T11:48:41;4.75;;;1.90;;
50789;SDS011;37287;47.554;7.844;2023-08-24T11:51:09;4.20;;;1.83;;
50789;SDS011;37287;47.554;7.844;2023-08-24T11:53:45;6.00;;;1.48;;
50789;SDS011;37287;47.554;7.844;2023-08-24T11:56:12;4.63;;;1.55;;
50789;SDS011;37287;47.554;7.844;2023-08-24T11:58:40;3.67;;;1.60;;
50789;SDS011;37287;47.554;7.844;2023-08-24T12:01:08;3.22;;;1.55;;
50789;SDS011;37287;47.554;7.844;2023-08-24T12:03:37;2.25;;;1.27;;
50789;SDS011;37287;47.554;7.844;2023-08-24T12:06:14;2.17;;;1.40;;
50789;SDS011;37287;47.554;7.844;2023-08-24T12:08:42;2.58;;;1.45;;
50789;SDS011;37287;47.554;7.844;2023-08-24T12:11:13;2.78;;;1.50;;
50789;SDS011;37287;47.554;7.844;2023-08-24T12:13:46;4.60;;;1.60;;
50789;SDS011;37287;47.554;7.844;2023-08-24T12:16:15;6.32;;;1.70;;
50789;SDS011;37287;47.554;7.844;2023-08-24T12:18:48;2.63;;;1.63;;
50789;SDS011;37287;47.554;7.844;2023-08-24T12:21:20;3.83;;;1.75;;
50789;SDS011;37287;47.554;7.844;2023-08-24T12:26:22;3.72;;;1.15;;
50789;SDS011;37287;47.554;7.844;2023-08-24T12:28:55;5.03;;;1.58;;
50789;SDS011;37287;47.554;7.844;2023-08-24T12:31:27;3.55;;;1.45;;
50789;SDS011;37287;47.554;7.844;2023-08-24T12:33:58;2.45;;;1.17;;
50789;SDS011;37287;47.554;7.844;2023-08-24T12:36:26;5.93;;;1.70;;
50789;SDS011;37287;47.554;7.844;2023-08-24T12:38:53;4.57;;;1.58;;
50789;SDS011;37287;47.554;7.844;2023-08-24T12:41:20;3.47;;;1.10;;
50789;SDS011;37287;47.554;7.844;2023-08-24T12:43:50;2.42;;;1.42;;
50789;SDS011;37287;47.554;7.844;2023-08-24T12:46:18;2.22;;;1.17;;
50789;SDS011;37287;47.554;7.844;2023-08-24T12:48:45;3.28;;;1.50;;
50789;SDS011;37287;47.554;7.844;2023-08-24T12:51:11;2.88;;;1.23;;
50789;SDS011;37287;47.554;7.844;2023-08-24T12:53:40;2.28;;;1.40;;
50789;SDS011;37287;47.554;7.844;2023-08-24T12:56:07;3.50;;;1.20;;
50789;SDS011;37287;47.554;7.844;2023-08-24T12:58:34;3.03;;;1.40;;
50789;SDS011;37287;47.554;7.844;2023-08-24T13:01:00;2.50;;;1.02;;
50789;SDS011;37287;47.554;7.844;2023-08-24T13:03:27;2.33;;;1.48;;
50789;SDS011;37287;47.554;7.844;2023-08-24T13:05:54;5.82;;;1.40;;
50789;SDS011;37287;47.554;7.844;2023-08-24T13:08:34;4.10;;;1.65;;
50789;SDS011;37287;47.554;7.844;2023-08-24T13:11:01;5.45;;;1.85;;
50789;SDS011;37287;47.554;7.844;2023-08-24T13:13:34;2.85;;;1.40;;
50789;SDS011;37287;47.554;7.844;2023-08-24T13:16:01;4.63;;;1.50;;
50789;SDS011;37287;47.554;7.844;2023-08-24T13:18:28;3.47;;;1.27;;
50789;SDS011;37287;47.554;7.844;2023-08-24T13:20:54;3.63;;;1.40;;
50789;SDS011;37287;47.554;7.844;2023-08-24T13:23:21;2.65;;;1.45;;
50789;SDS011;37287;47.554;7.844;2023-08-24T13:25:48;5.25;;;1.60;;
50789;SDS011;37287;47.554;7.844;2023-08-24T13:28:14;3.95;;;1.50;;
50789;SDS011;37287;47.554;7.844;2023-08-24T13:30:41;1.20;;;1.10;;
50789;SDS011;37287;47.554;7.844;2023-08-24T13:33:09;5.55;;;1.63;;
50789;SDS011;37287;47.554;7.844;2023-08-24T13:35:38;4.35;;;1.48;;
50789;SDS011;37287;47.554;7.844;2023-08-24T13:38:05;3.33;;;1.38;;
50789;SDS011;37287;47.554;7.844;2023-08-24T13:40:32;6.28;;;1.33;;
50789;SDS011;37287;47.554;7.844;2023-08-24T13:42:58;6.88;;;1.90;;
50789;SDS011;37287;47.554;7.844;2023-08-24T13:45:28;3.40;;;1.30;;
50789;SDS011;37287;47.554;7.844;2023-08-24T13:48:01;1.20;;;1.10;;
50789;SDS011;37287;47.554;7.844;2023-08-24T13:50:28;4.72;;;1.70;;
50789;SDS011;37287;47.554;7.844;2023-08-24T13:52:55;3.65;;;1.50;;
50789;SDS011;37287;47.554;7.844;2023-08-24T13:55:22;2.53;;;1.30;;
50789;SDS011;37287;47.554;7.844;2023-08-24T13:57:50;3.80;;;1.48;;
50789;SDS011;37287;47.554;7.844;2023-08-24T14:00:18;7.03;;;1.65;;
50789;SDS011;37287;47.554;7.844;2023-08-24T14:02:44;2.17;;;1.35;;
50789;SDS011;37287;47.554;7.844;2023-08-24T14:05:11;2.85;;;1.42;;
50789;SDS011;37287;47.554;7.844;2023-08-24T14:07:39;2.72;;;1.40;;
50789;SDS011;37287;47.554;7.844;2023-08-24T14:10:07;3.47;;;1.50;;
50789;SDS011;37287;47.554;7.844;2023-08-24T14:12:34;3.95;;;1.67;;
50789;SDS011;37287;47.554;7.844;2023-08-24T14:15:01;6.13;;;1.50;;
50789;SDS011;37287;47.554;7.844;2023-08-24T14:17:28;3.28;;;1.23;;
50789;SDS011;37287;47.554;7.844;2023-08-24T14:19:55;4.50;;;1.50;;
50789;SDS011;37287;47.554;7.844;2023-08-24T14:22:21;2.13;;;1.40;;
50789;SDS011;37287;47.554;7.844;2023-08-24T14:24:48;7.07;;;1.67;;
50789;SDS011;37287;47.554;7.844;2023-08-24T14:27:14;1.90;;;1.60;;
50789;SDS011;37287;47.554;7.844;2023-08-24T14:29:41;2.30;;;1.60;;
50789;SDS011;37287;47.554;7.844;2023-08-24T14:32:08;2.00;;;1.30;;
50789;SDS011;37287;47.554;7.844;2023-08-24T14:34:38;5.63;;;1.70;;
50789;SDS011;37287;47.554;7.844;2023-08-24T14:37:05;3.25;;;1.60;;
50789;SDS011;37287;47.554;7.844;2023-08-24T14:39:31;3.70;;;1.38;;
50789;SDS011;37287;47.554;7.844;2023-08-24T14:41:58;3.88;;;1.63;;
50789;SDS011;37287;47.554;7.844;2023-08-24T14:44:28;2.42;;;1.55;;
50789;SDS011;37287;47.554;7.844;2023-08-24T14:46:55;11.27;;;2.10;;
50789;SDS011;37287;47.554;7.844;2023-08-24T14:49:21;4.22;;;1.52;;
50789;SDS011;37287;47.554;7.844;2023-08-24T14:51:48;3.35;;;1.95;;
50789;SDS011;37287;47.554;7.844;2023-08-24T14:54:17;4.22;;;1.50;;
50789;SDS011;37287;47.554;7.844;2023-08-24T14:56:43;2.50;;;1.70;;
50789;SDS011;37287;47.554;7.844;2023-08-24T14:59:10;5.95;;;1.98;;
50789;SDS011;37287;47.554;7.844;2023-08-24T15:01:36;2.42;;;1.40;;
50789;SDS011;37287;47.554;7.844;2023-08-24T15:04:03;3.78;;;1.50;;
50789;SDS011;37287;47.554;7.844;2023-08-24T15:06:30;2.28;;;1.30;;
50789;SDS011;37287;47.554;7.844;2023-08-24T15:08:56;2.25;;;1.35;;
50789;SDS011;37287;47.554;7.844;2023-08-24T15:11:24;3.00;;;1.58;;
50789;SDS011;37287;47.554;7.844;2023-08-24T15:13:51;3.65;;;1.70;;
50789;SDS011;37287;47.554;7.844;2023-08-24T15:16:19;3.95;;;1.48;;
50789;SDS011;37287;47.554;7.844;2023-08-24T15:18:50;3.58;;;1.50;;
50789;SDS011;37287;47.554;7.844;2023-08-24T15:21:16;3.25;;;1.40;;
50789;SDS011;37287;47.554;7.844;2023-08-24T15:23:43;2.00;;;1.40;;
50789;SDS011;37287;47.554;7.844;2023-08-24T15:26:09;2.60;;;1.60;;